createdAt,value
2022-08-24T00:00:00.000Z,11.41
2022-08-24T00:15:00.000Z,11.78
2022-08-24T00:30:00.000Z,13.62
2022-08-24T00:45:00.000Z,13.22
2022-08-24T01:00:00.000Z,15.18
2022-08-24T01:15:00.000Z,14.46
2022-08-24T01:30:00.000Z,13.65
2022-08-24T01:45:00.000Z,13.36
2022-08-24T02:00:00.000Z,12.31
2022-08-24T02:15:00.000Z,14.03
2022-08-24T02:30:00.000Z,11.6
2022-08-24T02:45:00.000Z,12.64
2022-08-24T03:00:00.000Z,13
2022-08-24T03:15:00.000Z,14.51
2022-08-24T03:30:00.000Z,14.2
2022-08-24T03:45:00.000Z,14.68
2022-08-24T04:00:00.000Z,14.2
2022-08-24T04:15:00.000Z,14.74
2022-08-24T04:30:00.000Z,16.71
2022-08-24T04:45:00.000Z,17.56
2022-08-24T05:00:00.000Z,14.82
2022-08-24T05:15:00.000Z,15.22
2022-08-24T05:30:00.000Z,20.95
2022-08-24T05:45:00.000Z,19.2
2022-08-24T06:00:00.000Z,17.54
2022-08-24T06:15:00.000Z,16.44
2022-08-24T06:30:00.000Z,17.16
2022-08-24T06:45:00.000Z,22.09
2022-08-24T07:00:00.000Z,19.27
2022-08-24T07:15:00.000Z,18.02
2022-08-24T07:30:00.000Z,18.47
2022-08-24T07:45:00.000Z,18.01
2022-08-24T08:00:00.000Z,14.12
2022-08-24T08:15:00.000Z,12.59
2022-08-24T08:30:00.000Z,8.94
2022-08-24T08:45:00.000Z,8.13
2022-08-24T09:00:00.000Z,8.33
2022-08-24T09:15:00.000Z,7.86
2022-08-24T09:30:00.000Z,8.19
2022-08-24T09:45:00.000Z,8.54
2022-08-24T10:00:00.000Z,7.6
2022-08-24T10:15:00.000Z,7.68
2022-08-24T10:30:00.000Z,7.78
2022-08-24T10:45:00.000Z,7.33
2022-08-24T11:00:00.000Z,7.53
2022-08-24T11:15:00.000Z,7.38
2022-08-24T11:30:00.000Z,7.15
2022-08-24T11:45:00.000Z,7.18
2022-08-24T12:00:00.000Z,6.98
2022-08-24T12:15:00.000Z,7.14
2022-08-24T12:30:00.000Z,7.16
2022-08-24T12:45:00.000Z,7.57
2022-08-24T13:00:00.000Z,7.57
2022-08-24T13:15:00.000Z,7.29
2022-08-24T13:30:00.000Z,7.29
2022-08-24T13:45:00.000Z,7.33
2022-08-24T14:00:00.000Z,7.6
2022-08-24T14:15:00.000Z,7.45
2022-08-24T14:30:00.000Z,7.33
2022-08-24T14:45:00.000Z,7.4
2022-08-24T15:00:00.000Z,7.41
2022-08-24T15:15:00.000Z,7.65
2022-08-24T15:30:00.000Z,7.52
2022-08-24T15:45:00.000Z,7.24
2022-08-24T16:00:00.000Z,7.34
2022-08-24T16:15:00.000Z,7.4
2022-08-24T16:30:00.000Z,7.3
2022-08-24T16:45:00.000Z,7.84
2022-08-24T17:00:00.000Z,8.06
2022-08-24T17:15:00.000Z,7.78
2022-08-24T17:30:00.000Z,8.05
2022-08-24T17:45:00.000Z,8.88
2022-08-24T18:00:00.000Z,9.76
2022-08-24T18:15:00.000Z,10.66
2022-08-24T18:30:00.000Z,11.24
2022-08-24T18:45:00.000Z,10.86
2022-08-24T19:00:00.000Z,10.19
2022-08-24T19:15:00.000Z,9.98
2022-08-24T19:30:00.000Z,10.14
2022-08-24T19:45:00.000Z,10.16
2022-08-24T20:00:00.000Z,10.21
2022-08-24T20:15:00.000Z,10.68
2022-08-24T20:30:00.000Z,10.39
2022-08-24T20:45:00.000Z,11.36
2022-08-24T21:00:00.000Z,13.48
2022-08-24T21:15:00.000Z,14.72
2022-08-24T21:30:00.000Z,13.85
2022-08-24T21:45:00.000Z,12.32
2022-08-24T22:00:00.000Z,12.71
2022-08-24T22:15:00.000Z,13.98
2022-08-24T22:30:00.000Z,13.91
2022-08-24T22:45:00.000Z,13.94
2022-08-24T23:00:00.000Z,13.69
2022-08-24T23:15:00.000Z,12.99
2022-08-24T23:30:00.000Z,13.48
2022-08-24T23:45:00.000Z,13.29
